Columbus Metropolitan Airport
KCSG : now visible

Airfield :











YOU CAN JOIN US ON...

 
LOGIN :

Register | Disclaimer

   EN    FR    IT 

 









Legend :    VFR   Marginal VFR   IFR   Intensive IFR   Very Intensive IFR
Visi :
Ceiling :
>= 8 km
>= 3000ft
5 to 8 km
1000 to 3000 ft
1500m to 5 km
500 to 1000 ft
800 to 1500m
200 to 500 ft
< 800m
< 200 ft
Symbols :   Thunderstorms  Fog  Heavy snow  Heavy precipitations  Wind > 20 kt






- Airport Elevation : 397 ft
- IATA code : CSG


KCSG - Columbus Metropolitan

CURRENT METAR :
  • 171751Z 30012G19KT 10SM OVC020 04/M01 A2998 RMK AO2 SLP154 T00441006 10044 20017 51011

EXPIRED METARs :
  • 171651Z 31011G21KT 10SM OVC021 04/M01 A2998 RMK AO2 SLP152 T00441011
  • 171551Z 29009KT 250V330 10SM OVC021 04/M01 A2997 RMK AO2 SLP149 T00391011

TAF KCSG
Valid from the 17 at 18:00 until the 18 at 18:00 UTC


171735Z 1718/1818 31011G21KT P6SM OVC021
FM172100 32013KT P6SM BKN025
FM172300 32010KT P6SM SCT040
FM180500 VRB03KT P6SM FEW050
FM181100 00000KT P6SM FEW250
KZTL FIR / North America



MET'MAP, your aeronautical weather chart ! - Copyright ORBIFLY December 2007 - Disclaimer

ORBIFLY MET'MAP TEAM :

Programming & Development : Alexandra Zaïnal
Concept & original design : Baudouin d'Aumeries
Assistance for programming : Marc-Olivier Méhu
Technical & hardware support : Manuel Goepfert

Contact : metmap@orbifly.com




SOURCES & CREDITS :

   NOAA       Earth
Advisory